createdAt,value
2022-08-23T00:02:23.466Z,73.20
2022-08-23T00:05:00.546Z,73.30
2022-08-23T00:07:38.636Z,73.30
2022-08-23T00:10:06.998Z,73.30
2022-08-23T00:12:33.707Z,73.40
2022-08-23T00:15:00.740Z,73.20
2022-08-23T00:17:33.270Z,73.30
2022-08-23T00:20:03.491Z,73.60
2022-08-23T00:22:30.255Z,73.40
2022-08-23T00:24:56.966Z,73.20
2022-08-23T00:27:23.717Z,73.20
2022-08-23T00:29:54.098Z,73.40
2022-08-23T00:32:23.699Z,73.70
2022-08-23T00:34:51.160Z,74.10
2022-08-23T00:37:18.521Z,74.00
2022-08-23T00:39:45.721Z,73.80
2022-08-23T00:42:56.941Z,73.80
2022-08-23T00:45:56.108Z,73.80
2022-08-23T00:48:23.603Z,73.80
2022-08-23T00:50:57.620Z,74.00
2022-08-23T00:53:28.579Z,73.90
2022-08-23T00:56:01.039Z,73.80
2022-08-23T00:58:28.977Z,73.90
2022-08-23T01:00:58.494Z,73.90
2022-08-23T01:03:27.804Z,73.80
2022-08-23T01:06:03.357Z,73.80
2022-08-23T01:08:32.978Z,73.70
2022-08-23T01:11:08.864Z,73.80
2022-08-23T01:13:47.661Z,73.90
2022-08-23T01:16:19.244Z,73.90
2022-08-23T01:18:47.699Z,74.00
2022-08-23T01:21:45.698Z,73.90
2022-08-23T01:24:19.257Z,73.90
2022-08-23T01:27:00.927Z,73.80
2022-08-23T01:29:27.756Z,74.00
2022-08-23T01:31:56.458Z,74.10
2022-08-23T01:34:28.197Z,74.00
2022-08-23T01:36:56.425Z,73.90
2022-08-23T01:39:24.271Z,74.20
2022-08-23T01:41:51.366Z,74.90
2022-08-23T01:44:18.500Z,75.10
2022-08-23T01:46:47.180Z,74.80
2022-08-23T01:49:14.558Z,74.90
2022-08-23T01:51:42.433Z,74.80
2022-08-23T01:54:10.508Z,74.60
2022-08-23T01:56:39.490Z,74.80
2022-08-23T01:59:12.380Z,74.80
2022-08-23T02:01:58.189Z,74.70
2022-08-23T02:04:25.393Z,74.90
2022-08-23T02:06:53.217Z,74.70
2022-08-23T02:09:25.668Z,74.70
2022-08-23T02:11:56.533Z,74.70
2022-08-23T02:14:23.769Z,74.70
2022-08-23T02:17:03.543Z,74.70
2022-08-23T02:19:34.298Z,74.90
2022-08-23T02:22:02.042Z,74.60
2022-08-23T02:24:31.193Z,74.40
2022-08-23T02:27:01.902Z,74.50
2022-08-23T02:29:29.694Z,74.50
2022-08-23T02:31:58.087Z,74.70
2022-08-23T02:34:37.246Z,74.90
2022-08-23T02:37:05.731Z,74.90
2022-08-23T02:39:32.628Z,74.90
2022-08-23T02:42:00.298Z,74.70
2022-08-23T02:44:31.552Z,74.70
2022-08-23T02:46:58.381Z,74.90
2022-08-23T02:49:25.206Z,74.90
2022-08-23T02:51:52.208Z,74.70
2022-08-23T02:54:19.189Z,74.90
2022-08-23T02:56:46.105Z,74.90
2022-08-23T02:59:13.506Z,74.90
2022-08-23T03:01:40.955Z,74.90
2022-08-23T03:04:18.881Z,74.70
2022-08-23T03:06:45.864Z,74.90
2022-08-23T03:09:13.054Z,75.00
2022-08-23T03:11:44.927Z,75.00
2022-08-23T03:14:13.165Z,75.10
2022-08-23T03:16:40.467Z,75.10
2022-08-23T03:19:08.051Z,75.10
2022-08-23T03:21:34.915Z,75.20
2022-08-23T03:24:03.217Z,75.30
2022-08-23T03:26:33.774Z,75.40
2022-08-23T03:29:00.863Z,75.30
2022-08-23T03:31:32.361Z,75.40
2022-08-23T03:34:07.798Z,75.40
2022-08-23T03:36:34.923Z,75.40
2022-08-23T03:39:02.697Z,75.40
2022-08-23T03:41:29.397Z,75.30
2022-08-23T03:43:56.544Z,75.30
2022-08-23T03:46:24.722Z,75.10
2022-08-23T03:49:00.129Z,75.20
2022-08-23T03:51:31.875Z,75.30
2022-08-23T03:54:00.780Z,75.30
2022-08-23T03:56:29.399Z,75.20
2022-08-23T03:58:57.712Z,75.10
2022-08-23T04:01:28.571Z,75.10
2022-08-23T04:03:59.808Z,75.20
2022-08-23T04:06:28.862Z,75.40
2022-08-23T04:08:56.148Z,75.30
2022-08-23T04:11:23.933Z,75.50
2022-08-23T04:13:57.254Z,75.50
2022-08-23T04:16:23.997Z,75.40
2022-08-23T04:18:50.988Z,75.40
2022-08-23T04:21:22.484Z,75.30
2022-08-23T04:23:49.964Z,75.60
2022-08-23T04:26:17.074Z,75.50
2022-08-23T04:28:45.021Z,75.50
2022-08-23T04:31:12.706Z,75.50
2022-08-23T04:33:42.535Z,75.50
2022-08-23T04:36:12.902Z,75.70
2022-08-23T04:38:39.616Z,75.50
2022-08-23T04:41:26.173Z,75.50
2022-08-23T04:43:56.774Z,75.50
2022-08-23T04:46:24.458Z,75.60
2022-08-23T04:48:54.021Z,75.60
2022-08-23T04:51:22.192Z,75.60
2022-08-23T04:53:49.262Z,75.60
2022-08-23T04:56:39.649Z,75.60
2022-08-23T04:59:08.158Z,75.70
2022-08-23T05:01:42.376Z,75.70
2022-08-23T05:04:09.835Z,75.90
2022-08-23T05:06:38.922Z,76.10
2022-08-23T05:09:05.938Z,75.70
2022-08-23T05:11:35.173Z,75.80
2022-08-23T05:14:01.954Z,75.60
2022-08-23T05:16:29.496Z,75.50
2022-08-23T05:19:01.414Z,75.50
2022-08-23T05:21:29.470Z,75.50
2022-08-23T05:23:56.140Z,75.60
2022-08-23T05:26:25.717Z,75.80
2022-08-23T05:28:52.496Z,76.10
2022-08-23T05:31:26.548Z,76.10
2022-08-23T05:33:56.041Z,76.20
2022-08-23T05:36:48.911Z,76.10
2022-08-23T05:39:30.363Z,76.50
2022-08-23T05:42:03.247Z,76.50
2022-08-23T05:44:30.298Z,76.40
2022-08-23T05:47:03.534Z,76.30
2022-08-23T05:49:36.490Z,76.40
2022-08-23T05:52:08.664Z,76.40
2022-08-23T05:54:37.950Z,76.40
2022-08-23T05:57:22.961Z,76.40
2022-08-23T05:59:49.634Z,76.20
2022-08-23T06:02:16.317Z,76.40
2022-08-23T06:04:43.302Z,76.50
2022-08-23T06:07:11.170Z,76.50
2022-08-23T06:09:38.427Z,76.10
2022-08-23T06:12:05.548Z,76.00
2022-08-23T06:14:32.325Z,76.00
2022-08-23T06:16:59.299Z,75.80
2022-08-23T06:19:27.953Z,75.90
2022-08-23T06:22:12.272Z,75.60
2022-08-23T06:24:41.756Z,75.60
2022-08-23T06:27:17.413Z,75.50
2022-08-23T06:29:44.509Z,75.50
2022-08-23T06:32:29.256Z,75.70
2022-08-23T06:35:37.721Z,75.70
2022-08-23T06:38:06.979Z,75.60
2022-08-23T06:40:52.020Z,75.80
2022-08-23T06:43:33.403Z,75.30
2022-08-23T06:46:23.670Z,75.50
2022-08-23T06:48:51.670Z,75.30
2022-08-23T06:51:29.785Z,74.90
2022-08-23T06:54:06.598Z,74.70
2022-08-23T06:56:51.650Z,74.30
2022-08-23T06:59:23.111Z,73.70
2022-08-23T07:02:14.686Z,73.70
2022-08-23T07:04:56.569Z,73.10
2022-08-23T07:07:39.720Z,73.10
2022-08-23T07:10:11.542Z,73.10
2022-08-23T07:12:42.333Z,72.90
2022-08-23T07:15:12.110Z,72.70
2022-08-23T07:17:41.103Z,72.50
2022-08-23T07:20:08.165Z,72.40
2022-08-23T07:22:37.298Z,72.00
2022-08-23T07:25:04.283Z,71.90
2022-08-23T07:27:34.063Z,72.10
2022-08-23T07:30:07.280Z,71.70
2022-08-23T07:32:36.235Z,71.60
2022-08-23T07:35:13.907Z,71.50
2022-08-23T07:37:43.087Z,71.50
2022-08-23T07:40:20.360Z,71.40
2022-08-23T07:42:47.917Z,71.30
2022-08-23T07:45:15.165Z,71.20
2022-08-23T07:47:49.741Z,71.00
2022-08-23T07:50:17.659Z,70.90
2022-08-23T07:52:45.950Z,70.70
2022-08-23T07:55:12.733Z,70.30
2022-08-23T07:57:54.134Z,69.80
2022-08-23T08:00:49.271Z,70.00
2022-08-23T08:03:35.463Z,69.60
2022-08-23T08:06:23.615Z,69.40
2022-08-23T08:08:51.485Z,69.10
2022-08-23T08:11:21.774Z,69.10
2022-08-23T08:13:50.592Z,68.30
2022-08-23T08:16:30.600Z,68.00
2022-08-23T08:19:00.433Z,68.10
2022-08-23T08:21:42.795Z,68.40
2022-08-23T08:24:32.712Z,67.90
2022-08-23T08:27:08.205Z,67.30
2022-08-23T08:29:35.017Z,67.20
2022-08-23T08:32:01.876Z,66.60
2022-08-23T08:34:28.615Z,66.50
2022-08-23T08:36:58.701Z,66.60
2022-08-23T08:39:31.832Z,65.90
2022-08-23T08:42:38.796Z,65.90
2022-08-23T08:45:11.913Z,65.80
2022-08-23T08:47:57.173Z,66.00
2022-08-23T08:50:44.394Z,65.80
2022-08-23T08:53:46.604Z,65.70
2022-08-23T08:56:32.651Z,65.30
2022-08-23T08:59:20.240Z,65.20
2022-08-23T09:01:48.690Z,64.90
2022-08-23T09:04:22.248Z,65.50
2022-08-23T09:07:15.826Z,64.60
2022-08-23T09:10:19.498Z,64.50
2022-08-23T09:13:35.256Z,64.00
2022-08-23T09:16:17.015Z,63.20
2022-08-23T09:18:43.806Z,62.50
2022-08-23T09:21:11.238Z,63.00
2022-08-23T09:23:47.669Z,63.00
2022-08-23T09:26:36.693Z,62.80
2022-08-23T09:29:34.232Z,62.40
2022-08-23T09:32:07.284Z,62.10
2022-08-23T09:34:42.601Z,61.50
2022-08-23T09:37:19.261Z,62.50
2022-08-23T09:39:51.284Z,62.60
2022-08-23T09:42:36.913Z,63.00
2022-08-23T09:45:23.819Z,63.10
2022-08-23T09:47:50.577Z,63.00
2022-08-23T09:50:32.141Z,62.90
2022-08-23T09:53:06.289Z,62.40
2022-08-23T09:55:35.800Z,62.20
2022-08-23T09:58:07.376Z,62.30
2022-08-23T10:00:37.294Z,61.80
2022-08-23T10:03:29.570Z,61.00
2022-08-23T10:06:04.197Z,61.10
2022-08-23T10:08:51.773Z,61.00
2022-08-23T10:11:25.482Z,60.70
2022-08-23T10:13:53.264Z,60.40
2022-08-23T10:16:54.305Z,60.80
2022-08-23T10:19:28.260Z,60.20
2022-08-23T10:22:11.683Z,60.30
2022-08-23T10:24:55.132Z,60.80
2022-08-23T10:28:21.435Z,60.10
2022-08-23T10:31:02.225Z,59.60
2022-08-23T10:33:52.785Z,58.80
2022-08-23T10:36:33.674Z,59.60
2022-08-23T10:39:09.182Z,58.80
2022-08-23T10:42:06.313Z,58.20
2022-08-23T10:44:59.305Z,58.80
2022-08-23T10:47:37.191Z,58.30
2022-08-23T10:50:12.924Z,58.60
2022-08-23T10:52:57.717Z,58.00
2022-08-23T10:55:43.808Z,57.80
2022-08-23T10:58:20.057Z,56.60
2022-08-23T11:00:49.118Z,56.80
2022-08-23T11:03:41.834Z,56.10
2022-08-23T11:06:36.991Z,55.80
2022-08-23T11:09:19.528Z,55.70
2022-08-23T11:12:11.162Z,55.00
2022-08-23T11:14:42.392Z,54.70
2022-08-23T11:17:24.972Z,55.20
2022-08-23T11:20:08.390Z,55.60
2022-08-23T11:22:58.134Z,55.00
2022-08-23T11:25:24.781Z,55.30
2022-08-23T11:28:20.532Z,55.00
2022-08-23T11:30:51.122Z,55.60
2022-08-23T11:33:35.916Z,55.70
2022-08-23T11:36:09.090Z,55.80
2022-08-23T11:38:48.781Z,55.40
2022-08-23T11:41:25.080Z,55.50
2022-08-23T11:44:04.879Z,55.10
2022-08-23T11:46:48.170Z,55.00
2022-08-23T11:49:29.100Z,54.60
2022-08-23T11:52:26.744Z,54.70
2022-08-23T11:55:08.474Z,55.10
2022-08-23T11:57:57.922Z,54.10
2022-08-23T12:00:44.551Z,54.90
2022-08-23T12:03:24.698Z,54.90
2022-08-23T12:05:51.500Z,54.30
2022-08-23T12:08:22.929Z,54.60
2022-08-23T12:10:50.971Z,54.80
2022-08-23T12:13:21.017Z,54.90
2022-08-23T12:16:16.542Z,54.80
2022-08-23T12:18:47.666Z,54.40
2022-08-23T12:21:42.717Z,54.30
2022-08-23T12:24:33.272Z,54.20
2022-08-23T12:27:08.409Z,54.10
2022-08-23T12:29:48.908Z,53.80
2022-08-23T12:32:41.915Z,54.10
2022-08-23T12:35:32.862Z,54.10
2022-08-23T12:38:24.475Z,54.00
2022-08-23T12:40:54.625Z,53.40
2022-08-23T12:43:31.158Z,54.10
2022-08-23T12:46:02.540Z,54.10
2022-08-23T12:48:44.791Z,53.90
2022-08-23T12:51:12.534Z,53.90
2022-08-23T12:53:45.281Z,53.70
2022-08-23T12:56:31.716Z,53.70
2022-08-23T12:59:04.651Z,53.80
2022-08-23T13:01:36.595Z,53.20
2022-08-23T13:04:14.185Z,53.70
2022-08-23T13:06:53.000Z,53.70
2022-08-23T13:09:29.126Z,53.60
2022-08-23T13:11:58.101Z,53.20
2022-08-23T13:14:42.228Z,53.00
2022-08-23T13:17:32.007Z,53.60
2022-08-23T13:20:01.514Z,52.90
2022-08-23T13:22:31.010Z,53.10
2022-08-23T13:25:28.666Z,52.90
2022-08-23T13:28:04.032Z,53.10
2022-08-23T13:30:36.683Z,53.20
2022-08-23T13:33:09.420Z,52.90
2022-08-23T13:35:38.888Z,52.70
2022-08-23T13:38:08.538Z,53.10
2022-08-23T13:41:08.718Z,53.10
2022-08-23T13:43:44.493Z,52.40
2022-08-23T13:46:22.811Z,52.70
2022-08-23T13:49:04.509Z,52.40
2022-08-23T13:51:38.837Z,52.30
2022-08-23T13:54:08.622Z,52.80
2022-08-23T13:56:39.849Z,52.70
2022-08-23T13:59:21.255Z,52.40
2022-08-23T14:01:48.553Z,52.60
2022-08-23T14:04:15.903Z,52.10
2022-08-23T14:06:42.669Z,52.40
2022-08-23T14:09:16.434Z,52.20
2022-08-23T14:11:43.621Z,52.40
2022-08-23T14:14:12.358Z,52.50
2022-08-23T14:16:39.972Z,52.40
2022-08-23T14:19:16.503Z,52.50
2022-08-23T14:21:46.718Z,52.20
2022-08-23T14:24:13.425Z,52.50
2022-08-23T14:26:50.289Z,52.70
2022-08-23T14:29:21.581Z,52.10
2022-08-23T14:31:50.628Z,52.30
2022-08-23T14:34:17.465Z,52.80
2022-08-23T14:37:22.463Z,52.60
2022-08-23T14:39:31.034Z,52.70
2022-08-23T14:41:58.084Z,52.70
2022-08-23T14:44:27.009Z,52.10
2022-08-23T14:46:55.837Z,51.80
2022-08-23T14:49:23.511Z,52.10
2022-08-23T14:51:50.806Z,51.90
2022-08-23T14:54:21.075Z,52.10
2022-08-23T14:56:47.901Z,51.90
2022-08-23T14:59:14.780Z,51.80
2022-08-23T15:01:41.904Z,51.90
2022-08-23T15:04:08.975Z,51.80
2022-08-23T15:06:36.438Z,51.70
2022-08-23T15:09:03.438Z,51.60
2022-08-23T15:14:17.212Z,51.80
2022-08-23T15:16:44.069Z,51.40
2022-08-23T15:19:10.946Z,51.30
2022-08-23T15:21:37.615Z,51.10
2022-08-23T15:24:05.165Z,51.00
2022-08-23T15:26:33.914Z,51.00
2022-08-23T15:29:01.215Z,51.50
2022-08-23T15:31:29.113Z,51.70
2022-08-23T15:33:56.006Z,51.10
2022-08-23T15:36:22.845Z,51.00
2022-08-23T15:38:50.545Z,51.20
2022-08-23T15:41:18.709Z,51.30
2022-08-23T15:43:45.564Z,51.90
2022-08-23T15:46:19.092Z,52.10
2022-08-23T15:48:50.628Z,52.60
2022-08-23T15:51:19.037Z,53.00
2022-08-23T15:53:46.586Z,53.10
2022-08-23T15:56:20.085Z,53.00
2022-08-23T15:58:47.294Z,52.80
2022-08-23T16:01:14.556Z,53.20
2022-08-23T16:03:44.677Z,52.70
2022-08-23T16:06:13.223Z,53.20
2022-08-23T16:08:43.417Z,53.10
2022-08-23T16:11:12.889Z,53.30
2022-08-23T16:13:42.737Z,52.20
2022-08-23T16:16:16.238Z,52.10
2022-08-23T16:18:43.402Z,52.90
2022-08-23T16:21:10.650Z,53.20
2022-08-23T16:23:39.812Z,54.10
2022-08-23T16:26:15.045Z,54.00
2022-08-23T16:28:47.674Z,54.30
2022-08-23T16:31:14.701Z,54.90
2022-08-23T16:33:42.221Z,54.90
2022-08-23T16:36:09.774Z,54.90
2022-08-23T16:38:37.245Z,55.10
2022-08-23T16:41:04.275Z,55.40
2022-08-23T16:43:30.971Z,55.60
2022-08-23T16:45:57.711Z,55.80
2022-08-23T16:48:24.440Z,56.30
2022-08-23T16:50:51.783Z,56.50
2022-08-23T16:53:19.246Z,56.60
2022-08-23T16:55:45.935Z,56.80
2022-08-23T16:58:12.701Z,57.10
2022-08-23T17:00:39.430Z,57.40
2022-08-23T17:03:06.879Z,57.40
2022-08-23T17:05:33.830Z,57.70
2022-08-23T17:08:00.797Z,57.90
2022-08-23T17:10:28.127Z,58.20
2022-08-23T17:12:57.176Z,59.00
2022-08-23T17:15:27.987Z,58.70
2022-08-23T17:17:54.906Z,58.80
2022-08-23T17:20:23.313Z,58.60
2022-08-23T17:22:50.449Z,58.60
2022-08-23T17:25:18.831Z,59.00
2022-08-23T17:27:47.394Z,59.40
2022-08-23T17:30:17.427Z,59.50
2022-08-23T17:32:46.364Z,59.60
2022-08-23T17:35:15.041Z,59.50
2022-08-23T17:37:42.497Z,59.50
2022-08-23T17:40:13.595Z,59.40
2022-08-23T17:42:42.486Z,59.50
2022-08-23T17:45:10.932Z,59.50
2022-08-23T17:47:37.576Z,59.40
2022-08-23T17:50:05.301Z,60.00
2022-08-23T17:52:32.149Z,59.90
2022-08-23T17:54:59.369Z,60.20
2022-08-23T17:57:26.251Z,60.30
2022-08-23T17:59:53.421Z,60.90
2022-08-23T18:02:20.639Z,60.80
2022-08-23T18:04:47.946Z,60.80
2022-08-23T18:07:14.890Z,60.80
2022-08-23T18:09:48.699Z,60.80
2022-08-23T18:12:16.037Z,60.90
2022-08-23T18:14:42.780Z,61.20
2022-08-23T18:17:09.822Z,61.40
2022-08-23T18:19:36.496Z,61.60
2022-08-23T18:22:03.211Z,61.70
2022-08-23T18:24:29.921Z,61.60
2022-08-23T18:27:17.719Z,61.80
2022-08-23T18:29:51.358Z,61.80
2022-08-23T18:32:18.828Z,62.20
2022-08-23T18:34:46.079Z,62.30
2022-08-23T18:37:13.013Z,62.60
2022-08-23T18:39:39.697Z,62.80
2022-08-23T18:42:07.905Z,62.80
2022-08-23T18:44:34.919Z,62.90
2022-08-23T18:47:02.994Z,63.20
2022-08-23T18:49:31.854Z,63.20
2022-08-23T18:51:59.112Z,63.30
2022-08-23T18:54:25.970Z,63.20
2022-08-23T18:56:52.688Z,63.30
2022-08-23T18:59:19.490Z,63.60
2022-08-23T19:01:46.823Z,64.10
2022-08-23T19:04:14.288Z,63.90
2022-08-23T19:06:41.309Z,63.60
2022-08-23T19:09:12.792Z,63.40
2022-08-23T19:11:41.840Z,63.70
2022-08-23T19:14:10.675Z,63.60
2022-08-23T19:16:38.719Z,63.80
2022-08-23T19:19:06.330Z,64.10
2022-08-23T19:21:33.741Z,64.20
2022-08-23T19:24:01.120Z,64.40
2022-08-23T19:26:32.573Z,64.40
2022-08-23T19:29:01.029Z,64.60
2022-08-23T19:31:33.547Z,64.80
2022-08-23T19:34:03.190Z,64.70
2022-08-23T19:36:45.736Z,64.80
2022-08-23T19:39:15.161Z,64.80
2022-08-23T19:41:42.276Z,64.80
2022-08-23T19:44:09.917Z,64.70
2022-08-23T19:46:41.198Z,65.00
2022-08-23T19:49:09.817Z,65.00
2022-08-23T19:51:36.774Z,64.90
2022-08-23T19:54:04.567Z,65.20
2022-08-23T19:56:36.440Z,65.20
2022-08-23T19:59:09.209Z,65.40
2022-08-23T20:01:36.515Z,65.30
2022-08-23T20:04:03.657Z,65.30
2022-08-23T20:06:32.078Z,65.40
2022-08-23T20:08:58.752Z,65.60
2022-08-23T20:11:27.762Z,65.70
2022-08-23T20:13:56.556Z,65.80
2022-08-23T20:16:25.739Z,65.80
2022-08-23T20:18:52.842Z,65.90
2022-08-23T20:21:20.037Z,65.90
2022-08-23T20:24:04.161Z,66.00
2022-08-23T20:26:35.173Z,66.40
2022-08-23T20:29:04.174Z,66.60
2022-08-23T20:31:36.608Z,67.40
2022-08-23T20:34:08.841Z,67.20
2022-08-23T20:36:36.066Z,67.50
2022-08-23T20:39:04.054Z,67.60
2022-08-23T20:41:34.710Z,67.60
2022-08-23T20:44:02.381Z,67.50
2022-08-23T20:46:29.306Z,67.50
2022-08-23T20:48:58.881Z,67.70
2022-08-23T20:51:27.349Z,67.80
2022-08-23T20:53:55.012Z,67.70
2022-08-23T20:56:23.716Z,67.80
2022-08-23T20:58:50.948Z,68.00
2022-08-23T21:01:18.006Z,68.20
2022-08-23T21:03:44.871Z,68.40
2022-08-23T21:06:23.224Z,68.60
2022-08-23T21:08:54.020Z,68.60
2022-08-23T21:11:22.711Z,68.50
2022-08-23T21:13:49.621Z,68.70
2022-08-23T21:16:17.513Z,69.00
2022-08-23T21:18:44.346Z,68.90
2022-08-23T21:21:11.384Z,68.80
2022-08-23T21:23:38.329Z,68.60
2022-08-23T21:26:06.380Z,68.60
2022-08-23T21:28:33.655Z,69.20
2022-08-23T21:31:06.614Z,69.60
2022-08-23T21:33:37.903Z,69.40
2022-08-23T21:36:07.334Z,69.50
2022-08-23T21:38:34.507Z,69.70
2022-08-23T21:41:05.020Z,69.70
2022-08-23T21:43:32.841Z,69.60
2022-08-23T21:45:59.951Z,69.60
2022-08-23T21:48:26.746Z,69.60
2022-08-23T21:50:53.444Z,69.50
2022-08-23T21:53:20.428Z,69.50
2022-08-23T21:55:47.449Z,69.70
2022-08-23T21:58:14.208Z,69.80
2022-08-23T22:00:41.885Z,69.70
2022-08-23T22:03:09.141Z,70.10
2022-08-23T22:05:40.205Z,70.40
2022-08-23T22:08:06.923Z,70.50
2022-08-23T22:10:36.280Z,70.30
2022-08-23T22:13:04.271Z,70.10
2022-08-23T22:15:32.490Z,70.00
2022-08-23T22:18:04.564Z,70.00
2022-08-23T22:20:32.745Z,70.30
2022-08-23T22:23:00.025Z,70.70
2022-08-23T22:25:27.278Z,70.40
2022-08-23T22:27:54.045Z,70.30
2022-08-23T22:30:20.959Z,70.30
2022-08-23T22:32:47.728Z,70.50
2022-08-23T22:35:14.578Z,70.50
2022-08-23T22:38:03.608Z,71.00
2022-08-23T22:40:31.454Z,72.10
2022-08-23T22:42:58.166Z,72.10
2022-08-23T22:45:24.814Z,71.50
2022-08-23T22:47:51.544Z,71.40
2022-08-23T22:50:18.289Z,71.70
2022-08-23T22:52:45.072Z,71.90
2022-08-23T22:55:11.731Z,71.70
2022-08-23T22:57:38.426Z,71.50
2022-08-23T23:00:07.140Z,71.40
2022-08-23T23:02:37.935Z,71.40
2022-08-23T23:05:05.546Z,71.80
2022-08-23T23:07:50.810Z,72.20
2022-08-23T23:10:17.568Z,71.70
2022-08-23T23:12:44.289Z,71.70
2022-08-23T23:15:11.184Z,71.60
2022-08-23T23:17:37.874Z,71.70
2022-08-23T23:20:23.814Z,71.60
2022-08-23T23:22:51.728Z,71.50
2022-08-23T23:25:18.579Z,71.50
2022-08-23T23:27:45.292Z,71.50
2022-08-23T23:30:12.832Z,72.00
2022-08-23T23:32:39.533Z,71.90
2022-08-23T23:35:09.305Z,72.50
2022-08-23T23:37:36.021Z,71.70
2022-08-23T23:40:03.839Z,71.50
2022-08-23T23:42:30.686Z,71.30
2022-08-23T23:44:57.526Z,71.00
2022-08-23T23:47:24.183Z,71.00
2022-08-23T23:49:51.472Z,70.80
2022-08-23T23:52:18.144Z,70.80
2022-08-23T23:54:45.832Z,71.30
2022-08-23T23:57:12.529Z,71.60
2022-08-23T23:59:39.866Z,71.70
